sensor_id;sensor_type;location;lat;lon;timestamp;temperature;humidity
17701;DHT22;8969;48.576;12.580;2024-02-15T00:00:33;6.60;99.90
17701;DHT22;8969;48.576;12.580;2024-02-15T00:03:03;6.60;99.90
17701;DHT22;8969;48.576;12.580;2024-02-15T00:05:51;6.60;99.90
17701;DHT22;8969;48.576;12.580;2024-02-15T00:08:20;6.60;99.90
17701;DHT22;8969;48.576;12.580;2024-02-15T00:10:48;6.60;99.90
17701;DHT22;8969;48.576;12.580;2024-02-15T00:13:17;6.60;99.90
17701;DHT22;8969;48.576;12.580;2024-02-15T00:15:46;6.60;99.90
17701;DHT22;8969;48.576;12.580;2024-02-15T00:18:15;6.60;99.90
17701;DHT22;8969;48.576;12.580;2024-02-15T00:20:44;6.60;99.90
17701;DHT22;8969;48.576;12.580;2024-02-15T00:23:12;6.60;99.90
17701;DHT22;8969;48.576;12.580;2024-02-15T00:25:40;6.60;99.90
17701;DHT22;8969;48.576;12.580;2024-02-15T00:28:10;6.60;99.90
17701;DHT22;8969;48.576;12.580;2024-02-15T00:30:40;6.60;99.90
17701;DHT22;8969;48.576;12.580;2024-02-15T00:33:08;6.60;99.90
17701;DHT22;8969;48.576;12.580;2024-02-15T00:35:37;6.70;99.90
17701;DHT22;8969;48.576;12.580;2024-02-15T00:38:06;6.70;99.90
17701;DHT22;8969;48.576;12.580;2024-02-15T00:40:35;6.70;99.90
17701;DHT22;8969;48.576;12.580;2024-02-15T00:43:03;6.70;99.90
17701;DHT22;8969;48.576;12.580;2024-02-15T00:45:32;6.70;99.90
17701;DHT22;8969;48.576;12.580;2024-02-15T00:48:03;6.70;99.90
17701;DHT22;8969;48.576;12.580;2024-02-15T00:50:33;6.80;99.90
17701;DHT22;8969;48.576;12.580;2024-02-15T00:53:02;6.80;99.90
17701;DHT22;8969;48.576;12.580;2024-02-15T00:55:30;6.80;99.90
17701;DHT22;8969;48.576;12.580;2024-02-15T00:57:59;6.70;99.90
17701;DHT22;8969;48.576;12.580;2024-02-15T01:00:27;6.70;99.90
17701;DHT22;8969;48.576;12.580;2024-02-15T01:02:55;6.80;99.90
17701;DHT22;8969;48.576;12.580;2024-02-15T01:05:25;6.80;99.90
17701;DHT22;8969;48.576;12.580;2024-02-15T01:07:53;6.80;99.90
17701;DHT22;8969;48.576;12.580;2024-02-15T01:10:22;6.80;99.90
17701;DHT22;8969;48.576;12.580;2024-02-15T01:12:51;6.80;99.90
17701;DHT22;8969;48.576;12.580;2024-02-15T01:15:20;6.80;99.90
17701;DHT22;8969;48.576;12.580;2024-02-15T01:17:49;6.80;99.90
17701;DHT22;8969;48.576;12.580;2024-02-15T01:20:17;6.70;99.90
17701;DHT22;8969;48.576;12.580;2024-02-15T01:22:47;6.70;99.90
17701;DHT22;8969;48.576;12.580;2024-02-15T01:25:16;6.80;99.90
17701;DHT22;8969;48.576;12.580;2024-02-15T01:27:44;6.80;99.90
17701;DHT22;8969;48.576;12.580;2024-02-15T01:30:13;6.80;99.90
17701;DHT22;8969;48.576;12.580;2024-02-15T01:32:42;6.80;99.90
17701;DHT22;8969;48.576;12.580;2024-02-15T01:35:11;6.80;99.90
17701;DHT22;8969;48.576;12.580;2024-02-15T01:37:39;6.80;99.90
17701;DHT22;8969;48.576;12.580;2024-02-15T01:40:09;6.80;99.90
17701;DHT22;8969;48.576;12.580;2024-02-15T01:42:40;6.80;99.90
17701;DHT22;8969;48.576;12.580;2024-02-15T01:45:08;6.80;99.90
17701;DHT22;8969;48.576;12.580;2024-02-15T01:47:39;6.80;99.90
17701;DHT22;8969;48.576;12.580;2024-02-15T01:50:09;6.80;99.90
17701;DHT22;8969;48.576;12.580;2024-02-15T01:52:39;6.80;99.90
17701;DHT22;8969;48.576;12.580;2024-02-15T01:55:11;6.80;99.90
17701;DHT22;8969;48.576;12.580;2024-02-15T01:57:39;6.80;99.90
17701;DHT22;8969;48.576;12.580;2024-02-15T02:00:08;6.80;99.90
17701;DHT22;8969;48.576;12.580;2024-02-15T02:02:38;6.80;99.90
17701;DHT22;8969;48.576;12.580;2024-02-15T02:05:07;6.80;99.90
17701;DHT22;8969;48.576;12.580;2024-02-15T02:07:36;6.80;99.90
17701;DHT22;8969;48.576;12.580;2024-02-15T02:10:06;6.80;99.90
17701;DHT22;8969;48.576;12.580;2024-02-15T02:12:37;6.80;99.90
17701;DHT22;8969;48.576;12.580;2024-02-15T02:15:07;6.70;99.90
17701;DHT22;8969;48.576;12.580;2024-02-15T02:17:35;6.70;99.90
17701;DHT22;8969;48.576;12.580;2024-02-15T02:20:04;6.70;99.90
17701;DHT22;8969;48.576;12.580;2024-02-15T02:22:35;6.70;99.90
17701;DHT22;8969;48.576;12.580;2024-02-15T02:25:07;6.70;99.90
17701;DHT22;8969;48.576;12.580;2024-02-15T02:27:36;6.70;99.90
17701;DHT22;8969;48.576;12.580;2024-02-15T02:30:11;6.80;99.90
17701;DHT22;8969;48.576;12.580;2024-02-15T02:32:42;6.80;99.90
17701;DHT22;8969;48.576;12.580;2024-02-15T02:35:10;6.70;99.90
17701;DHT22;8969;48.576;12.580;2024-02-15T02:37:39;6.80;99.90
17701;DHT22;8969;48.576;12.580;2024-02-15T02:40:09;6.80;99.90
17701;DHT22;8969;48.576;12.580;2024-02-15T02:42:49;6.80;99.90
17701;DHT22;8969;48.576;12.580;2024-02-15T02:45:18;6.80;99.90
17701;DHT22;8969;48.576;12.580;2024-02-15T02:47:49;6.90;99.90
17701;DHT22;8969;48.576;12.580;2024-02-15T02:50:21;6.90;99.90
17701;DHT22;8969;48.576;12.580;2024-02-15T02:52:50;6.90;99.90
17701;DHT22;8969;48.576;12.580;2024-02-15T02:55:20;6.90;99.90
17701;DHT22;8969;48.576;12.580;2024-02-15T02:57:48;6.90;99.90
17701;DHT22;8969;48.576;12.580;2024-02-15T03:00:17;6.90;99.90
17701;DHT22;8969;48.576;12.580;2024-02-15T03:02:47;6.90;99.90
17701;DHT22;8969;48.576;12.580;2024-02-15T03:05:15;6.90;99.90
17701;DHT22;8969;48.576;12.580;2024-02-15T03:07:44;7.00;99.90
17701;DHT22;8969;48.576;12.580;2024-02-15T03:10:12;7.00;99.90
17701;DHT22;8969;48.576;12.580;2024-02-15T03:12:43;7.00;99.90
17701;DHT22;8969;48.576;12.580;2024-02-15T03:15:16;7.00;99.90
17701;DHT22;8969;48.576;12.580;2024-02-15T03:17:47;7.00;99.90
17701;DHT22;8969;48.576;12.580;2024-02-15T03:20:17;7.00;99.90
17701;DHT22;8969;48.576;12.580;2024-02-15T03:22:53;7.00;99.90
17701;DHT22;8969;48.576;12.580;2024-02-15T03:25:23;7.00;99.90
17701;DHT22;8969;48.576;12.580;2024-02-15T03:27:54;7.00;99.90
17701;DHT22;8969;48.576;12.580;2024-02-15T03:30:23;6.90;99.90
17701;DHT22;8969;48.576;12.580;2024-02-15T03:32:52;6.90;99.90
17701;DHT22;8969;48.576;12.580;2024-02-15T03:35:25;7.00;99.90
17701;DHT22;8969;48.576;12.580;2024-02-15T03:37:53;7.00;99.90
17701;DHT22;8969;48.576;12.580;2024-02-15T03:40:22;7.00;99.90
17701;DHT22;8969;48.576;12.580;2024-02-15T03:42:55;7.00;99.90
17701;DHT22;8969;48.576;12.580;2024-02-15T03:45:24;6.90;99.90
17701;DHT22;8969;48.576;12.580;2024-02-15T03:47:53;6.90;99.90
17701;DHT22;8969;48.576;12.580;2024-02-15T03:50:22;6.90;99.90
17701;DHT22;8969;48.576;12.580;2024-02-15T03:52:51;6.90;99.90
17701;DHT22;8969;48.576;12.580;2024-02-15T03:55:19;6.90;99.90
17701;DHT22;8969;48.576;12.580;2024-02-15T03:57:49;6.90;99.90
17701;DHT22;8969;48.576;12.580;2024-02-15T04:00:19;6.90;99.90
17701;DHT22;8969;48.576;12.580;2024-02-15T04:02:49;6.90;99.90
17701;DHT22;8969;48.576;12.580;2024-02-15T04:05:17;6.90;99.90
17701;DHT22;8969;48.576;12.580;2024-02-15T04:07:46;6.90;99.90
17701;DHT22;8969;48.576;12.580;2024-02-15T04:10:15;6.90;99.90
17701;DHT22;8969;48.576;12.580;2024-02-15T04:12:45;6.90;99.90
17701;DHT22;8969;48.576;12.580;2024-02-15T04:15:13;6.90;99.90
17701;DHT22;8969;48.576;12.580;2024-02-15T04:17:46;6.90;99.90
17701;DHT22;8969;48.576;12.580;2024-02-15T04:20:14;6.90;99.90
17701;DHT22;8969;48.576;12.580;2024-02-15T04:22:45;6.90;99.90
17701;DHT22;8969;48.576;12.580;2024-02-15T04:25:14;6.80;99.90
17701;DHT22;8969;48.576;12.580;2024-02-15T04:27:45;6.70;99.90
17701;DHT22;8969;48.576;12.580;2024-02-15T04:30:14;6.70;99.90
17701;DHT22;8969;48.576;12.580;2024-02-15T04:32:45;6.80;99.90
17701;DHT22;8969;48.576;12.580;2024-02-15T04:35:14;6.70;99.90
17701;DHT22;8969;48.576;12.580;2024-02-15T04:37:43;6.70;99.90
17701;DHT22;8969;48.576;12.580;2024-02-15T04:40:14;6.70;99.90
17701;DHT22;8969;48.576;12.580;2024-02-15T04:42:45;6.70;99.90
17701;DHT22;8969;48.576;12.580;2024-02-15T04:45:14;6.70;99.90
17701;DHT22;8969;48.576;12.580;2024-02-15T04:47:43;6.70;99.90
17701;DHT22;8969;48.576;12.580;2024-02-15T04:50:16;6.70;99.90
17701;DHT22;8969;48.576;12.580;2024-02-15T04:52:45;6.70;99.90
17701;DHT22;8969;48.576;12.580;2024-02-15T04:55:15;6.60;99.90
17701;DHT22;8969;48.576;12.580;2024-02-15T04:57:45;6.60;99.90
17701;DHT22;8969;48.576;12.580;2024-02-15T05:00:17;6.60;99.90
17701;DHT22;8969;48.576;12.580;2024-02-15T05:02:48;6.50;99.90
17701;DHT22;8969;48.576;12.580;2024-02-15T05:05:19;6.50;99.90
17701;DHT22;8969;48.576;12.580;2024-02-15T05:07:48;6.50;99.90
17701;DHT22;8969;48.576;12.580;2024-02-15T05:10:17;6.60;99.90
17701;DHT22;8969;48.576;12.580;2024-02-15T05:12:45;6.50;99.90
17701;DHT22;8969;48.576;12.580;2024-02-15T05:15:15;6.50;99.90
17701;DHT22;8969;48.576;12.580;2024-02-15T05:17:45;6.50;99.90
17701;DHT22;8969;48.576;12.580;2024-02-15T05:20:15;6.50;99.90
17701;DHT22;8969;48.576;12.580;2024-02-15T05:22:45;6.40;99.90
17701;DHT22;8969;48.576;12.580;2024-02-15T05:25:17;6.40;99.90
17701;DHT22;8969;48.576;12.580;2024-02-15T05:27:51;6.40;99.90
17701;DHT22;8969;48.576;12.580;2024-02-15T05:30:21;6.40;99.90
17701;DHT22;8969;48.576;12.580;2024-02-15T05:32:49;6.40;99.90
17701;DHT22;8969;48.576;12.580;2024-02-15T05:35:20;6.40;99.90
17701;DHT22;8969;48.576;12.580;2024-02-15T05:37:49;6.40;99.90
17701;DHT22;8969;48.576;12.580;2024-02-15T05:40:19;6.40;99.90
17701;DHT22;8969;48.576;12.580;2024-02-15T05:42:49;6.50;99.90
17701;DHT22;8969;48.576;12.580;2024-02-15T05:45:29;6.50;99.90
17701;DHT22;8969;48.576;12.580;2024-02-15T05:48:00;6.50;99.90
17701;DHT22;8969;48.576;12.580;2024-02-15T05:50:29;6.50;99.90
17701;DHT22;8969;48.576;12.580;2024-02-15T05:53:00;6.50;99.90
17701;DHT22;8969;48.576;12.580;2024-02-15T05:55:29;6.50;99.90
17701;DHT22;8969;48.576;12.580;2024-02-15T05:58:01;6.50;99.90
17701;DHT22;8969;48.576;12.580;2024-02-15T06:00:30;6.50;99.90
17701;DHT22;8969;48.576;12.580;2024-02-15T06:02:58;6.50;99.90
17701;DHT22;8969;48.576;12.580;2024-02-15T06:05:29;6.50;99.90
17701;DHT22;8969;48.576;12.580;2024-02-15T06:07:59;6.50;99.90
17701;DHT22;8969;48.576;12.580;2024-02-15T06:10:27;6.60;99.90
17701;DHT22;8969;48.576;12.580;2024-02-15T06:12:57;6.60;99.90
17701;DHT22;8969;48.576;12.580;2024-02-15T06:15:26;6.60;99.90
17701;DHT22;8969;48.576;12.580;2024-02-15T06:17:54;6.60;99.90
17701;DHT22;8969;48.576;12.580;2024-02-15T06:20:24;6.60;99.90
17701;DHT22;8969;48.576;12.580;2024-02-15T06:22:55;6.60;99.90
17701;DHT22;8969;48.576;12.580;2024-02-15T06:25:24;6.60;99.90
17701;DHT22;8969;48.576;12.580;2024-02-15T06:27:53;6.60;99.90
17701;DHT22;8969;48.576;12.580;2024-02-15T06:30:29;6.70;99.90
17701;DHT22;8969;48.576;12.580;2024-02-15T06:33:14;6.70;99.90
17701;DHT22;8969;48.576;12.580;2024-02-15T06:36:05;6.70;99.90
17701;DHT22;8969;48.576;12.580;2024-02-15T06:38:50;6.70;99.90
17701;DHT22;8969;48.576;12.580;2024-02-15T06:41:37;6.70;99.90
17701;DHT22;8969;48.576;12.580;2024-02-15T06:44:06;6.70;99.90
17701;DHT22;8969;48.576;12.580;2024-02-15T06:46:34;6.70;99.90
17701;DHT22;8969;48.576;12.580;2024-02-15T06:49:02;6.70;99.90
17701;DHT22;8969;48.576;12.580;2024-02-15T06:51:32;6.80;99.90
17701;DHT22;8969;48.576;12.580;2024-02-15T06:54:01;6.80;99.90
17701;DHT22;8969;48.576;12.580;2024-02-15T06:56:37;6.80;99.90
17701;DHT22;8969;48.576;12.580;2024-02-15T06:59:07;6.80;99.90
17701;DHT22;8969;48.576;12.580;2024-02-15T07:01:37;6.80;99.90
17701;DHT22;8969;48.576;12.580;2024-02-15T07:04:04;6.90;99.90
17701;DHT22;8969;48.576;12.580;2024-02-15T07:06:33;6.90;99.90
17701;DHT22;8969;48.576;12.580;2024-02-15T07:09:02;6.90;99.90
17701;DHT22;8969;48.576;12.580;2024-02-15T07:11:31;7.00;99.90
17701;DHT22;8969;48.576;12.580;2024-02-15T07:14:01;7.00;99.90
17701;DHT22;8969;48.576;12.580;2024-02-15T07:16:32;7.00;99.90
17701;DHT22;8969;48.576;12.580;2024-02-15T07:19:00;7.10;99.90
17701;DHT22;8969;48.576;12.580;2024-02-15T07:21:30;7.10;99.90
17701;DHT22;8969;48.576;12.580;2024-02-15T07:23:58;7.20;99.90
17701;DHT22;8969;48.576;12.580;2024-02-15T07:26:27;7.20;99.90
17701;DHT22;8969;48.576;12.580;2024-02-15T07:28:55;7.20;99.90
17701;DHT22;8969;48.576;12.580;2024-02-15T07:31:27;7.30;99.90
17701;DHT22;8969;48.576;12.580;2024-02-15T07:33:56;7.30;99.90
17701;DHT22;8969;48.576;12.580;2024-02-15T07:36:25;7.30;99.90
17701;DHT22;8969;48.576;12.580;2024-02-15T07:38:54;7.40;99.90
17701;DHT22;8969;48.576;12.580;2024-02-15T07:41:25;7.40;99.90
17701;DHT22;8969;48.576;12.580;2024-02-15T07:43:53;7.40;99.90
17701;DHT22;8969;48.576;12.580;2024-02-15T07:46:22;7.50;99.90
17701;DHT22;8969;48.576;12.580;2024-02-15T07:48:52;7.60;99.90
17701;DHT22;8969;48.576;12.580;2024-02-15T07:51:22;7.60;99.90
17701;DHT22;8969;48.576;12.580;2024-02-15T07:53:51;7.70;99.90
17701;DHT22;8969;48.576;12.580;2024-02-15T07:56:19;7.70;99.90
17701;DHT22;8969;48.576;12.580;2024-02-15T07:58:48;7.70;99.90
17701;DHT22;8969;48.576;12.580;2024-02-15T08:01:20;7.70;99.90
17701;DHT22;8969;48.576;12.580;2024-02-15T08:03:52;7.70;99.90
17701;DHT22;8969;48.576;12.580;2024-02-15T08:06:22;7.80;99.90
17701;DHT22;8969;48.576;12.580;2024-02-15T08:08:55;7.80;99.90
17701;DHT22;8969;48.576;12.580;2024-02-15T08:11:23;7.80;99.90
17701;DHT22;8969;48.576;12.580;2024-02-15T08:13:53;7.90;99.90
17701;DHT22;8969;48.576;12.580;2024-02-15T08:16:24;7.90;99.90
17701;DHT22;8969;48.576;12.580;2024-02-15T08:18:55;8.00;99.90
17701;DHT22;8969;48.576;12.580;2024-02-15T08:21:25;8.00;99.90
17701;DHT22;8969;48.576;12.580;2024-02-15T08:23:56;8.10;99.90
17701;DHT22;8969;48.576;12.580;2024-02-15T08:26:26;8.20;99.90
17701;DHT22;8969;48.576;12.580;2024-02-15T08:28:57;8.20;99.90
17701;DHT22;8969;48.576;12.580;2024-02-15T08:31:25;8.30;99.90
17701;DHT22;8969;48.576;12.580;2024-02-15T08:33:54;8.40;99.90
17701;DHT22;8969;48.576;12.580;2024-02-15T08:36:23;8.60;99.90
17701;DHT22;8969;48.576;12.580;2024-02-15T08:38:52;8.70;99.90
17701;DHT22;8969;48.576;12.580;2024-02-15T08:41:21;8.70;99.90
17701;DHT22;8969;48.576;12.580;2024-02-15T08:43:53;8.80;99.90
17701;DHT22;8969;48.576;12.580;2024-02-15T08:46:23;8.80;99.90
17701;DHT22;8969;48.576;12.580;2024-02-15T08:48:56;8.80;99.90
17701;DHT22;8969;48.576;12.580;2024-02-15T08:51:24;8.90;99.90
17701;DHT22;8969;48.576;12.580;2024-02-15T08:53:54;9.00;99.90
17701;DHT22;8969;48.576;12.580;2024-02-15T08:56:24;9.10;99.90
17701;DHT22;8969;48.576;12.580;2024-02-15T08:58:52;9.20;99.90
17701;DHT22;8969;48.576;12.580;2024-02-15T09:01:21;9.20;99.90
17701;DHT22;8969;48.576;12.580;2024-02-15T09:03:49;9.30;99.90
17701;DHT22;8969;48.576;12.580;2024-02-15T09:06:18;9.40;99.90
17701;DHT22;8969;48.576;12.580;2024-02-15T09:08:47;9.50;99.90
17701;DHT22;8969;48.576;12.580;2024-02-15T09:11:16;9.50;99.90
17701;DHT22;8969;48.576;12.580;2024-02-15T09:13:44;9.50;99.90
17701;DHT22;8969;48.576;12.580;2024-02-15T09:16:12;9.50;99.90
17701;DHT22;8969;48.576;12.580;2024-02-15T09:18:40;9.60;99.90
17701;DHT22;8969;48.576;12.580;2024-02-15T09:21:12;9.70;99.90
17701;DHT22;8969;48.576;12.580;2024-02-15T09:23:42;9.80;99.90
17701;DHT22;8969;48.576;12.580;2024-02-15T09:26:10;9.80;99.90
17701;DHT22;8969;48.576;12.580;2024-02-15T09:28:40;9.90;99.90
17701;DHT22;8969;48.576;12.580;2024-02-15T09:31:08;10.00;99.90
17701;DHT22;8969;48.576;12.580;2024-02-15T09:33:38;10.00;99.90
17701;DHT22;8969;48.576;12.580;2024-02-15T09:36:07;10.10;99.90
17701;DHT22;8969;48.576;12.580;2024-02-15T09:38:35;10.20;99.90
17701;DHT22;8969;48.576;12.580;2024-02-15T09:41:05;10.30;99.90
17701;DHT22;8969;48.576;12.580;2024-02-15T09:43:35;10.40;99.90
17701;DHT22;8969;48.576;12.580;2024-02-15T09:46:04;10.40;99.90
17701;DHT22;8969;48.576;12.580;2024-02-15T09:48:34;10.50;99.90
17701;DHT22;8969;48.576;12.580;2024-02-15T09:51:04;10.60;99.90
17701;DHT22;8969;48.576;12.580;2024-02-15T09:53:32;10.70;99.90
17701;DHT22;8969;48.576;12.580;2024-02-15T09:56:02;10.70;99.90
17701;DHT22;8969;48.576;12.580;2024-02-15T09:58:34;10.90;99.90
17701;DHT22;8969;48.576;12.580;2024-02-15T10:01:04;11.00;99.90
17701;DHT22;8969;48.576;12.580;2024-02-15T10:03:38;11.10;99.90
17701;DHT22;8969;48.576;12.580;2024-02-15T10:06:07;11.20;99.90
17701;DHT22;8969;48.576;12.580;2024-02-15T10:08:37;11.30;99.90
17701;DHT22;8969;48.576;12.580;2024-02-15T10:11:06;11.30;99.90
17701;DHT22;8969;48.576;12.580;2024-02-15T10:13:37;11.40;99.90
17701;DHT22;8969;48.576;12.580;2024-02-15T10:16:16;11.40;99.90
17701;DHT22;8969;48.576;12.580;2024-02-15T10:18:45;11.50;99.90
17701;DHT22;8969;48.576;12.580;2024-02-15T10:21:24;11.60;99.90
17701;DHT22;8969;48.576;12.580;2024-02-15T10:24:05;11.60;99.90
17701;DHT22;8969;48.576;12.580;2024-02-15T10:26:34;11.70;99.90
17701;DHT22;8969;48.576;12.580;2024-02-15T10:29:08;11.80;99.90
17701;DHT22;8969;48.576;12.580;2024-02-15T10:31:39;11.90;99.90
17701;DHT22;8969;48.576;12.580;2024-02-15T10:34:08;11.90;99.90
17701;DHT22;8969;48.576;12.580;2024-02-15T10:36:38;12.10;99.90
17701;DHT22;8969;48.576;12.580;2024-02-15T10:39:16;12.10;99.90
17701;DHT22;8969;48.576;12.580;2024-02-15T10:41:49;12.20;99.90
17701;DHT22;8969;48.576;12.580;2024-02-15T10:44:20;12.30;99.90
17701;DHT22;8969;48.576;12.580;2024-02-15T10:46:51;12.30;99.90
17701;DHT22;8969;48.576;12.580;2024-02-15T10:49:20;12.40;99.90
17701;DHT22;8969;48.576;12.580;2024-02-15T10:51:52;12.50;99.90
17701;DHT22;8969;48.576;12.580;2024-02-15T10:54:41;12.60;99.90
17701;DHT22;8969;48.576;12.580;2024-02-15T10:57:11;12.70;99.90
17701;DHT22;8969;48.576;12.580;2024-02-15T10:59:54;12.70;99.90
17701;DHT22;8969;48.576;12.580;2024-02-15T11:02:29;12.70;99.90
17701;DHT22;8969;48.576;12.580;2024-02-15T11:05:02;12.70;99.90
17701;DHT22;8969;48.576;12.580;2024-02-15T11:07:34;12.70;99.90
17701;DHT22;8969;48.576;12.580;2024-02-15T11:10:04;12.80;99.90
17701;DHT22;8969;48.576;12.580;2024-02-15T11:12:35;12.80;99.90
17701;DHT22;8969;48.576;12.580;2024-02-15T11:15:06;12.90;99.90
17701;DHT22;8969;48.576;12.580;2024-02-15T11:17:48;13.00;99.90
17701;DHT22;8969;48.576;12.580;2024-02-15T11:20:51;13.00;99.90
17701;DHT22;8969;48.576;12.580;2024-02-15T11:23:26;13.10;99.90
17701;DHT22;8969;48.576;12.580;2024-02-15T11:26:04;13.20;99.90
17701;DHT22;8969;48.576;12.580;2024-02-15T11:28:39;13.20;99.90
17701;DHT22;8969;48.576;12.580;2024-02-15T11:31:10;13.30;99.90
17701;DHT22;8969;48.576;12.580;2024-02-15T11:33:42;13.30;99.90
17701;DHT22;8969;48.576;12.580;2024-02-15T11:36:12;13.20;99.90
17701;DHT22;8969;48.576;12.580;2024-02-15T11:38:41;13.30;99.90
17701;DHT22;8969;48.576;12.580;2024-02-15T11:41:11;13.40;99.90
17701;DHT22;8969;48.576;12.580;2024-02-15T11:43:50;13.50;99.90
17701;DHT22;8969;48.576;12.580;2024-02-15T11:46:25;13.50;99.90
17701;DHT22;8969;48.576;12.580;2024-02-15T11:48:57;13.50;99.90
17701;DHT22;8969;48.576;12.580;2024-02-15T11:51:29;13.50;99.90
17701;DHT22;8969;48.576;12.580;2024-02-15T11:54:05;13.50;99.90
17701;DHT22;8969;48.576;12.580;2024-02-15T11:56:51;13.40;99.90
17701;DHT22;8969;48.576;12.580;2024-02-15T11:59:21;13.40;99.90
17701;DHT22;8969;48.576;12.580;2024-02-15T12:02:03;13.50;99.90
17701;DHT22;8969;48.576;12.580;2024-02-15T12:04:49;13.60;99.90
17701;DHT22;8969;48.576;12.580;2024-02-15T12:07:35;13.50;99.90
17701;DHT22;8969;48.576;12.580;2024-02-15T12:10:21;13.30;99.90
17701;DHT22;8969;48.576;12.580;2024-02-15T12:13:06;13.20;99.90
17701;DHT22;8969;48.576;12.580;2024-02-15T12:15:58;13.10;99.90
17701;DHT22;8969;48.576;12.580;2024-02-15T12:18:46;13.20;99.90
17701;DHT22;8969;48.576;12.580;2024-02-15T12:21:22;13.20;99.90
17701;DHT22;8969;48.576;12.580;2024-02-15T12:23:52;13.20;99.90
17701;DHT22;8969;48.576;12.580;2024-02-15T12:26:20;13.20;99.90
17701;DHT22;8969;48.576;12.580;2024-02-15T12:28:51;13.30;99.90
17701;DHT22;8969;48.576;12.580;2024-02-15T12:31:22;13.30;99.90
17701;DHT22;8969;48.576;12.580;2024-02-15T12:34:02;13.20;99.90
17701;DHT22;8969;48.576;12.580;2024-02-15T12:36:33;13.30;99.90
17701;DHT22;8969;48.576;12.580;2024-02-15T12:39:04;13.30;99.90
17701;DHT22;8969;48.576;12.580;2024-02-15T12:41:38;13.30;99.90
17701;DHT22;8969;48.576;12.580;2024-02-15T12:44:07;13.40;99.90
17701;DHT22;8969;48.576;12.580;2024-02-15T12:46:37;13.40;99.90
17701;DHT22;8969;48.576;12.580;2024-02-15T12:49:27;13.40;99.90
17701;DHT22;8969;48.576;12.580;2024-02-15T12:55:11;13.20;99.90
17701;DHT22;8969;48.576;12.580;2024-02-15T12:57:40;13.30;99.90
17701;DHT22;8969;48.576;12.580;2024-02-15T13:00:12;13.30;99.90
17701;DHT22;8969;48.576;12.580;2024-02-15T13:02:45;13.40;99.90
17701;DHT22;8969;48.576;12.580;2024-02-15T13:05:17;13.50;99.90
17701;DHT22;8969;48.576;12.580;2024-02-15T13:07:47;13.60;99.90
17701;DHT22;8969;48.576;12.580;2024-02-15T13:10:15;13.70;99.90
17701;DHT22;8969;48.576;12.580;2024-02-15T13:12:44;13.60;99.90
17701;DHT22;8969;48.576;12.580;2024-02-15T13:15:15;13.70;99.90
17701;DHT22;8969;48.576;12.580;2024-02-15T13:17:45;13.80;99.90
17701;DHT22;8969;48.576;12.580;2024-02-15T13:20:17;13.80;99.90
17701;DHT22;8969;48.576;12.580;2024-02-15T13:22:47;13.80;99.90
17701;DHT22;8969;48.576;12.580;2024-02-15T13:25:16;13.90;99.90
17701;DHT22;8969;48.576;12.580;2024-02-15T13:27:44;14.00;99.90
17701;DHT22;8969;48.576;12.580;2024-02-15T13:30:13;14.00;99.90
17701;DHT22;8969;48.576;12.580;2024-02-15T13:32:41;14.10;99.90
17701;DHT22;8969;48.576;12.580;2024-02-15T13:35:10;14.10;99.90
17701;DHT22;8969;48.576;12.580;2024-02-15T13:37:42;14.00;99.90
17701;DHT22;8969;48.576;12.580;2024-02-15T13:40:15;14.00;99.90
17701;DHT22;8969;48.576;12.580;2024-02-15T13:42:43;14.00;99.90
17701;DHT22;8969;48.576;12.580;2024-02-15T13:45:16;14.00;99.90
17701;DHT22;8969;48.576;12.580;2024-02-15T13:47:46;13.90;99.90
17701;DHT22;8969;48.576;12.580;2024-02-15T13:50:16;13.90;99.90
17701;DHT22;8969;48.576;12.580;2024-02-15T13:52:46;13.90;99.90
17701;DHT22;8969;48.576;12.580;2024-02-15T13:55:16;13.90;99.90
17701;DHT22;8969;48.576;12.580;2024-02-15T13:57:45;13.70;99.90
17701;DHT22;8969;48.576;12.580;2024-02-15T14:00:16;13.60;99.90
17701;DHT22;8969;48.576;12.580;2024-02-15T14:02:50;13.50;99.90
17701;DHT22;8969;48.576;12.580;2024-02-15T14:05:20;13.50;99.90
17701;DHT22;8969;48.576;12.580;2024-02-15T14:07:55;13.50;99.90
17701;DHT22;8969;48.576;12.580;2024-02-15T14:10:24;13.50;99.90
17701;DHT22;8969;48.576;12.580;2024-02-15T14:12:54;13.40;99.90
17701;DHT22;8969;48.576;12.580;2024-02-15T14:15:25;13.40;99.90
17701;DHT22;8969;48.576;12.580;2024-02-15T14:17:53;13.40;99.90
17701;DHT22;8969;48.576;12.580;2024-02-15T14:20:23;13.40;99.90
17701;DHT22;8969;48.576;12.580;2024-02-15T14:22:53;13.40;99.90
17701;DHT22;8969;48.576;12.580;2024-02-15T14:25:23;13.30;99.90
17701;DHT22;8969;48.576;12.580;2024-02-15T14:27:54;13.30;99.90
17701;DHT22;8969;48.576;12.580;2024-02-15T14:30:24;13.30;99.90
17701;DHT22;8969;48.576;12.580;2024-02-15T14:33:19;13.30;99.90
17701;DHT22;8969;48.576;12.580;2024-02-15T14:35:50;13.20;99.90
17701;DHT22;8969;48.576;12.580;2024-02-15T14:38:21;13.20;99.90
17701;DHT22;8969;48.576;12.580;2024-02-15T14:40:51;13.10;99.90
17701;DHT22;8969;48.576;12.580;2024-02-15T14:43:21;13.00;99.90
17701;DHT22;8969;48.576;12.580;2024-02-15T14:45:51;13.00;99.90
17701;DHT22;8969;48.576;12.580;2024-02-15T14:48:20;13.00;99.90
17701;DHT22;8969;48.576;12.580;2024-02-15T14:50:48;13.00;99.90
17701;DHT22;8969;48.576;12.580;2024-02-15T14:53:18;12.90;99.90
17701;DHT22;8969;48.576;12.580;2024-02-15T14:55:48;12.90;99.90
17701;DHT22;8969;48.576;12.580;2024-02-15T14:58:17;12.80;99.90
17701;DHT22;8969;48.576;12.580;2024-02-15T15:00:45;12.90;99.90
17701;DHT22;8969;48.576;12.580;2024-02-15T15:03:15;12.80;99.90
17701;DHT22;8969;48.576;12.580;2024-02-15T15:05:44;12.80;99.90
17701;DHT22;8969;48.576;12.580;2024-02-15T15:08:35;12.70;99.90
17701;DHT22;8969;48.576;12.580;2024-02-15T15:11:22;12.70;99.90
17701;DHT22;8969;48.576;12.580;2024-02-15T15:14:08;12.70;99.90
17701;DHT22;8969;48.576;12.580;2024-02-15T15:16:36;12.60;99.90
17701;DHT22;8969;48.576;12.580;2024-02-15T15:19:04;12.60;99.90
17701;DHT22;8969;48.576;12.580;2024-02-15T15:21:32;12.60;99.90
17701;DHT22;8969;48.576;12.580;2024-02-15T15:24:01;12.60;99.90
17701;DHT22;8969;48.576;12.580;2024-02-15T15:26:31;12.70;99.90
17701;DHT22;8969;48.576;12.580;2024-02-15T15:28:59;12.70;99.90
17701;DHT22;8969;48.576;12.580;2024-02-15T15:31:29;12.60;99.90
17701;DHT22;8969;48.576;12.580;2024-02-15T15:33:58;12.60;99.90
17701;DHT22;8969;48.576;12.580;2024-02-15T15:36:26;12.60;99.90
17701;DHT22;8969;48.576;12.580;2024-02-15T15:38:56;12.50;99.90
17701;DHT22;8969;48.576;12.580;2024-02-15T15:41:24;12.50;99.90
17701;DHT22;8969;48.576;12.580;2024-02-15T15:43:56;12.40;99.90
17701;DHT22;8969;48.576;12.580;2024-02-15T15:46:24;12.30;99.90
17701;DHT22;8969;48.576;12.580;2024-02-15T15:48:52;12.30;99.90
17701;DHT22;8969;48.576;12.580;2024-02-15T15:51:20;12.20;99.90
17701;DHT22;8969;48.576;12.580;2024-02-15T15:53:48;12.10;99.90
17701;DHT22;8969;48.576;12.580;2024-02-15T15:56:18;12.10;99.90
17701;DHT22;8969;48.576;12.580;2024-02-15T15:58:46;12.00;99.90
17701;DHT22;8969;48.576;12.580;2024-02-15T16:01:20;12.00;99.90
17701;DHT22;8969;48.576;12.580;2024-02-15T16:03:49;12.00;99.90
17701;DHT22;8969;48.576;12.580;2024-02-15T16:06:18;11.90;99.90